createdAt,value
2018-08-17T00:02:18.700Z,16.23
2018-08-17T00:04:47.256Z,13.30
2018-08-17T00:09:58.884Z,14.43
2018-08-17T00:12:27.595Z,13.53
2018-08-17T00:14:56.360Z,13.73
2018-08-17T00:17:25.034Z,13.83
2018-08-17T00:19:53.621Z,14.60
2018-08-17T00:22:22.312Z,14.77
2018-08-17T00:24:50.934Z,14.17
2018-08-17T00:27:19.626Z,13.80
2018-08-17T00:29:48.557Z,13.20
2018-08-17T00:32:17.173Z,13.73
2018-08-17T00:34:45.809Z,13.93
2018-08-17T00:37:14.540Z,13.63
2018-08-17T00:39:43.154Z,12.97
2018-08-17T00:42:11.749Z,13.77
2018-08-17T00:44:40.468Z,14.63
2018-08-17T00:47:09.101Z,15.87
2018-08-17T00:49:37.750Z,15.17
2018-08-17T00:52:06.437Z,15.93
2018-08-17T00:54:35.155Z,15.67
2018-08-17T00:57:03.783Z,15.07
2018-08-17T00:59:32.597Z,15.60
2018-08-17T01:02:01.254Z,15.53
2018-08-17T01:04:29.894Z,16.20
2018-08-17T01:06:58.555Z,15.27
2018-08-17T01:09:27.203Z,15.37
2018-08-17T01:11:55.873Z,15.57
2018-08-17T01:14:24.594Z,15.30
2018-08-17T01:16:53.160Z,14.80
2018-08-17T01:19:21.861Z,15.93
2018-08-17T01:21:50.460Z,16.10
2018-08-17T01:24:19.119Z,15.30
2018-08-17T01:26:47.771Z,15.83
2018-08-17T01:29:16.403Z,15.70
2018-08-17T01:31:45.020Z,15.10
2018-08-17T01:34:13.678Z,15.33
2018-08-17T01:36:42.309Z,15.53
2018-08-17T01:39:11.550Z,15.77
2018-08-17T01:41:40.455Z,16.27
2018-08-17T01:44:09.088Z,15.57
2018-08-17T01:46:37.764Z,15.20
2018-08-17T01:49:06.415Z,14.33
2018-08-17T01:51:35.051Z,14.77
2018-08-17T01:54:03.699Z,14.43
2018-08-17T01:56:32.301Z,14.60
2018-08-17T01:59:00.924Z,14.93
2018-08-17T02:01:29.571Z,15.23
2018-08-17T02:03:58.243Z,17.30
2018-08-17T02:06:26.880Z,14.93
2018-08-17T02:08:55.535Z,15.20
2018-08-17T02:11:24.073Z,15.60
2018-08-17T02:13:52.752Z,15.23
2018-08-17T02:16:21.310Z,15.93
2018-08-17T02:18:49.923Z,14.97
2018-08-17T02:21:18.517Z,15.87
2018-08-17T02:23:47.134Z,15.87
2018-08-17T02:26:15.854Z,15.37
2018-08-17T02:28:44.566Z,15.20
2018-08-17T02:31:13.199Z,15.20
2018-08-17T02:33:41.794Z,15.63
2018-08-17T02:36:11.040Z,15.37
2018-08-17T02:38:39.803Z,15.53
2018-08-17T02:41:08.532Z,15.00
2018-08-17T02:43:37.182Z,15.23
2018-08-17T02:46:06.004Z,15.73
2018-08-17T02:48:34.787Z,15.27
2018-08-17T02:51:03.490Z,16.27
2018-08-17T02:53:32.152Z,15.13
2018-08-17T02:56:00.742Z,16.27
2018-08-17T02:58:29.375Z,16.87
2018-08-17T03:00:57.959Z,19.73
2018-08-17T03:03:26.500Z,18.97
2018-08-17T03:05:55.064Z,17.87
2018-08-17T03:08:23.693Z,19.27
2018-08-17T03:10:52.271Z,18.17
2018-08-17T03:13:20.904Z,20.23
2018-08-17T03:15:49.480Z,21.60
2018-08-17T03:18:18.022Z,21.70
2018-08-17T03:20:46.646Z,21.50
2018-08-17T03:23:15.343Z,22.13
2018-08-17T03:25:44.079Z,20.87
2018-08-17T03:28:12.695Z,20.87
2018-08-17T03:30:41.324Z,21.47
2018-08-17T03:33:10.024Z,20.23
2018-08-17T03:35:38.809Z,21.73
2018-08-17T03:38:07.476Z,20.73
2018-08-17T03:40:36.336Z,20.17
2018-08-17T03:43:05.036Z,20.17
2018-08-17T03:45:33.865Z,18.63
2018-08-17T03:48:02.555Z,17.80
2018-08-17T03:50:31.194Z,17.30
2018-08-17T03:52:59.875Z,18.00
2018-08-17T03:55:28.770Z,17.23
2018-08-17T03:57:57.556Z,18.17
2018-08-17T04:00:26.179Z,16.97
2018-08-17T04:02:54.893Z,17.77
2018-08-17T04:05:23.615Z,16.07
2018-08-17T04:07:52.266Z,16.10
2018-08-17T04:10:20.892Z,17.57
2018-08-17T04:12:49.752Z,16.27
2018-08-17T04:15:18.427Z,15.07
2018-08-17T04:17:47.019Z,14.97
2018-08-17T04:20:15.647Z,14.73
2018-08-17T04:22:44.406Z,14.30
2018-08-17T04:25:13.183Z,14.50
2018-08-17T04:27:41.890Z,13.13
2018-08-17T04:30:10.614Z,14.00
2018-08-17T04:32:39.371Z,14.23
2018-08-17T04:35:08.081Z,13.53
2018-08-17T04:37:36.681Z,13.37
2018-08-17T04:40:05.553Z,13.03
2018-08-17T04:42:34.373Z,12.30
2018-08-17T04:45:03.052Z,12.50
2018-08-17T04:47:31.837Z,12.07
2018-08-17T04:50:00.555Z,13.33
2018-08-17T04:52:29.307Z,11.70
2018-08-17T04:54:58.072Z,11.73
2018-08-17T04:57:26.849Z,10.63
2018-08-17T04:59:55.636Z,10.53
2018-08-17T05:02:24.414Z,10.73
2018-08-17T05:04:53.046Z,10.10
2018-08-17T05:07:21.791Z,9.57
2018-08-17T05:09:50.588Z,9.60
2018-08-17T05:12:19.404Z,10.03
2018-08-17T05:14:48.934Z,10.97
2018-08-17T05:17:17.743Z,9.50
2018-08-17T05:19:46.550Z,8.90
2018-08-17T05:22:15.327Z,7.80
2018-08-17T05:24:44.161Z,8.70
2018-08-17T05:27:13.079Z,9.60
2018-08-17T05:29:41.935Z,8.83
2018-08-17T05:32:10.769Z,8.67
2018-08-17T05:34:39.505Z,11.40
2018-08-17T05:37:08.459Z,9.10
2018-08-17T05:39:37.480Z,7.70
2018-08-17T05:42:06.488Z,7.00
2018-08-17T05:44:35.184Z,7.43
2018-08-17T05:47:04.098Z,7.13
2018-08-17T05:49:32.854Z,7.30
2018-08-17T05:52:01.614Z,6.77
2018-08-17T05:54:30.475Z,7.33
2018-08-17T05:56:59.122Z,7.57
2018-08-17T05:59:27.772Z,8.80
2018-08-17T06:01:56.573Z,6.57
2018-08-17T06:04:25.322Z,6.40
2018-08-17T06:06:54.370Z,6.23
2018-08-17T06:09:23.065Z,6.67
2018-08-17T06:11:51.917Z,8.00
2018-08-17T06:14:20.711Z,6.57
2018-08-17T06:16:49.536Z,6.20
2018-08-17T06:19:18.462Z,6.10
2018-08-17T06:21:47.181Z,6.60
2018-08-17T06:24:15.896Z,8.87
2018-08-17T06:26:44.723Z,6.33
2018-08-17T06:29:13.427Z,7.67
2018-08-17T06:31:42.130Z,8.73
2018-08-17T06:34:10.890Z,8.47
2018-08-17T06:36:39.769Z,6.93
2018-08-17T06:39:10.185Z,7.43
2018-08-17T06:41:38.971Z,7.10
2018-08-17T06:44:07.760Z,7.03
2018-08-17T06:46:36.590Z,6.53
2018-08-17T06:49:05.307Z,5.47
2018-08-17T06:51:34.006Z,5.57
2018-08-17T06:54:02.991Z,6.47
2018-08-17T06:56:31.636Z,7.17
2018-08-17T06:59:01.132Z,5.47
2018-08-17T07:01:30.147Z,6.37
2018-08-17T07:03:58.842Z,7.17
2018-08-17T07:06:27.464Z,6.47
2018-08-17T07:08:56.072Z,7.80
2018-08-17T07:11:24.692Z,7.63
2018-08-17T07:13:53.373Z,7.77
2018-08-17T07:16:22.226Z,8.20
2018-08-17T07:18:51.036Z,8.63
2018-08-17T07:21:19.932Z,7.03
2018-08-17T07:23:48.620Z,7.80
2018-08-17T07:26:17.300Z,7.83
2018-08-17T07:28:45.955Z,7.17
2018-08-17T07:31:14.639Z,7.40
2018-08-17T07:33:43.395Z,7.70
2018-08-17T07:36:12.020Z,7.00
2018-08-17T07:38:40.902Z,6.90
2018-08-17T07:41:09.600Z,7.07
2018-08-17T07:43:38.319Z,6.50
2018-08-17T07:46:06.928Z,7.20
2018-08-17T07:48:35.719Z,6.30
2018-08-17T07:51:04.410Z,6.00
2018-08-17T07:53:33.232Z,6.30
2018-08-17T07:56:02.004Z,6.00
2018-08-17T07:58:30.683Z,5.43
2018-08-17T08:00:59.734Z,6.17
2018-08-17T08:03:28.473Z,5.90
2018-08-17T08:05:59.614Z,6.30
2018-08-17T08:08:28.221Z,6.30
2018-08-17T08:10:56.807Z,5.83
2018-08-17T08:13:25.420Z,7.07
2018-08-17T08:15:53.911Z,6.63
2018-08-17T08:18:22.472Z,6.50
2018-08-17T08:20:51.503Z,6.63
2018-08-17T08:23:25.884Z,7.80
2018-08-17T08:25:54.874Z,6.87
2018-08-17T08:28:23.443Z,6.53
2018-08-17T08:30:52.072Z,6.20
2018-08-17T08:33:20.994Z,5.47
2018-08-17T08:35:49.963Z,6.30
2018-08-17T08:38:18.878Z,5.73
2018-08-17T08:40:48.541Z,5.90
2018-08-17T08:43:17.385Z,6.07
2018-08-17T08:45:46.040Z,6.20
2018-08-17T08:48:14.829Z,5.80
2018-08-17T08:50:44.100Z,5.63
2018-08-17T08:53:12.742Z,5.63
2018-08-17T08:55:41.414Z,5.80
2018-08-17T08:58:10.071Z,7.17
2018-08-17T09:00:38.609Z,5.53
2018-08-17T09:03:07.515Z,6.40
2018-08-17T09:05:39.630Z,6.43
2018-08-17T09:08:08.306Z,7.20
2018-08-17T09:10:36.908Z,6.00
2018-08-17T09:13:05.534Z,6.93
2018-08-17T09:15:34.065Z,5.33
2018-08-17T09:18:02.773Z,5.23
2018-08-17T09:20:31.376Z,6.40
2018-08-17T09:23:00.061Z,6.80
2018-08-17T09:25:28.797Z,8.97
2018-08-17T09:27:57.543Z,8.47
2018-08-17T09:30:26.368Z,8.60
2018-08-17T09:32:55.273Z,8.30
2018-08-17T09:35:24.048Z,8.10
2018-08-17T09:37:52.699Z,7.40
2018-08-17T09:40:21.388Z,6.40
2018-08-17T09:42:49.949Z,6.87
2018-08-17T09:45:18.504Z,6.27
2018-08-17T09:47:47.136Z,6.50
2018-08-17T09:50:16.160Z,5.80
2018-08-17T09:52:44.790Z,5.70
2018-08-17T09:55:13.472Z,6.07
2018-08-17T09:57:42.388Z,5.20
2018-08-17T10:00:11.554Z,5.07
2018-08-17T10:02:45.492Z,5.47
2018-08-17T10:05:19.354Z,6.40
2018-08-17T10:07:53.140Z,7.07
2018-08-17T10:10:23.419Z,7.70
2018-08-17T10:12:52.708Z,6.87
2018-08-17T10:15:21.971Z,7.37
2018-08-17T10:17:50.772Z,8.53
2018-08-17T10:20:20.640Z,6.53
2018-08-17T10:22:49.273Z,6.50
2018-08-17T10:25:25.048Z,5.50
2018-08-17T10:27:58.169Z,6.07
2018-08-17T10:30:27.023Z,6.00
2018-08-17T10:32:57.043Z,6.87
2018-08-17T10:35:27.515Z,6.37
2018-08-17T10:37:58.429Z,6.10
2018-08-17T10:40:27.548Z,6.77
2018-08-17T10:42:56.294Z,6.40
2018-08-17T10:45:26.463Z,6.20
2018-08-17T10:47:55.770Z,6.47
2018-08-17T10:50:25.839Z,6.60
2018-08-17T10:52:55.954Z,6.63
2018-08-17T10:55:29.998Z,7.20
2018-08-17T10:57:58.594Z,7.57
2018-08-17T11:00:27.349Z,7.30
2018-08-17T11:02:56.052Z,7.10
2018-08-17T11:05:24.668Z,8.30
2018-08-17T11:07:53.263Z,8.73
2018-08-17T11:10:21.919Z,8.00
2018-08-17T11:12:50.591Z,7.97
2018-08-17T11:15:19.251Z,9.07
2018-08-17T11:17:47.944Z,9.63
2018-08-17T11:20:20.869Z,10.00
2018-08-17T11:22:49.615Z,11.67
2018-08-17T11:25:18.311Z,11.20
2018-08-17T11:27:48.285Z,11.50
2018-08-17T11:30:16.972Z,12.50
2018-08-17T11:32:45.694Z,13.03
2018-08-17T11:35:14.446Z,14.40
2018-08-17T11:37:43.155Z,14.80
2018-08-17T11:40:12.251Z,16.50
2018-08-17T11:42:50.491Z,16.60
2018-08-17T11:45:21.395Z,16.60
2018-08-17T11:47:50.501Z,16.27
2018-08-17T11:50:20.938Z,17.00
2018-08-17T11:52:54.689Z,16.17
2018-08-17T11:55:24.362Z,15.33
2018-08-17T11:57:53.225Z,15.60
2018-08-17T12:00:21.914Z,15.17
2018-08-17T12:02:50.603Z,15.20
2018-08-17T12:05:19.294Z,13.83
2018-08-17T12:07:49.349Z,13.47
2018-08-17T12:10:18.123Z,15.97
2018-08-17T12:12:47.702Z,14.43
2018-08-17T12:15:16.809Z,15.70
2018-08-17T12:17:45.491Z,14.47
2018-08-17T12:20:14.365Z,13.40
2018-08-17T12:22:43.468Z,14.73
2018-08-17T12:25:12.365Z,14.57
2018-08-17T12:27:47.057Z,12.07
2018-08-17T12:30:15.763Z,12.20
2018-08-17T12:32:44.547Z,11.07
2018-08-17T12:35:14.143Z,10.63
2018-08-17T12:37:43.066Z,14.93
2018-08-17T12:40:12.832Z,16.43
2018-08-17T12:42:42.393Z,18.27
2018-08-17T12:45:16.183Z,19.43
2018-08-17T12:47:44.837Z,21.00
2018-08-17T12:50:13.560Z,20.93
2018-08-17T12:52:42.221Z,21.33
2018-08-17T12:55:10.976Z,22.73
2018-08-17T12:57:41.933Z,22.90
2018-08-17T13:00:11.386Z,21.40
2018-08-17T13:02:40.059Z,23.93
2018-08-17T13:05:08.631Z,25.83
2018-08-17T13:07:37.253Z,24.53
2018-08-17T13:10:06.120Z,25.70
2018-08-17T13:12:34.733Z,26.40
2018-08-17T13:15:03.411Z,26.57
2018-08-17T13:17:38.151Z,29.47
2018-08-17T13:20:07.419Z,30.07
2018-08-17T13:22:36.545Z,28.57
2018-08-17T13:25:05.203Z,29.30
2018-08-17T13:27:33.775Z,29.10
2018-08-17T13:30:02.350Z,28.47
2018-08-17T13:32:30.951Z,26.50
2018-08-17T13:34:59.593Z,27.33
2018-08-17T13:37:28.451Z,24.57
2018-08-17T13:39:57.085Z,23.70
2018-08-17T13:42:26.274Z,23.10
2018-08-17T13:45:01.612Z,19.50
2018-08-17T13:47:30.356Z,17.57
2018-08-17T13:49:58.977Z,14.00
2018-08-17T13:52:27.720Z,12.93
2018-08-17T13:54:56.458Z,10.77
2018-08-17T13:57:25.169Z,11.13
2018-08-17T13:59:53.889Z,10.83
2018-08-17T14:02:22.657Z,11.63
2018-08-17T14:04:51.210Z,12.50
2018-08-17T14:07:19.852Z,11.77
2018-08-17T14:09:48.505Z,12.50
2018-08-17T14:12:17.057Z,12.23
2018-08-17T14:14:45.591Z,16.83
2018-08-17T14:17:14.248Z,10.30
2018-08-17T14:19:42.797Z,12.80
2018-08-17T14:22:11.663Z,12.00
2018-08-17T14:24:40.237Z,9.13
2018-08-17T14:27:08.820Z,11.40
2018-08-17T14:29:37.475Z,8.67
2018-08-17T14:32:06.427Z,10.00
2018-08-17T14:34:34.991Z,9.57
2018-08-17T14:37:03.545Z,9.83
2018-08-17T14:39:32.310Z,9.53
2018-08-17T14:42:02.013Z,10.33
2018-08-17T14:44:30.921Z,10.10
2018-08-17T14:46:59.547Z,9.27
2018-08-17T14:49:28.116Z,8.37
2018-08-17T14:51:56.710Z,7.27
2018-08-17T14:54:25.276Z,6.03
2018-08-17T14:56:53.921Z,5.20
2018-08-17T14:59:22.709Z,5.00
2018-08-17T15:01:51.214Z,4.80
2018-08-17T15:04:19.758Z,5.73
2018-08-17T15:06:48.313Z,4.17
2018-08-17T15:09:16.929Z,3.77
2018-08-17T15:11:45.391Z,3.57
2018-08-17T15:14:14.708Z,3.30
2018-08-17T15:16:43.713Z,3.00
2018-08-17T15:19:12.356Z,3.00
2018-08-17T15:21:41.618Z,2.80
2018-08-17T15:24:11.386Z,3.50
2018-08-17T15:26:40.033Z,3.90
2018-08-17T15:29:08.656Z,4.40
2018-08-17T15:31:37.485Z,4.93
2018-08-17T15:34:06.136Z,4.10
2018-08-17T15:36:34.768Z,4.30
2018-08-17T15:39:03.634Z,5.50
2018-08-17T15:41:32.383Z,5.17
2018-08-17T15:44:01.022Z,5.07
2018-08-17T15:46:33.211Z,5.70
2018-08-17T15:49:02.101Z,5.73
2018-08-17T15:51:30.722Z,4.93
2018-08-17T15:53:59.586Z,5.10
2018-08-17T15:56:28.235Z,6.37
2018-08-17T15:58:57.261Z,7.03
2018-08-17T16:01:26.093Z,6.40
2018-08-17T16:03:54.612Z,6.37
2018-08-17T16:06:23.103Z,7.13
2018-08-17T16:08:52.199Z,7.30
2018-08-17T16:11:21.128Z,7.27
2018-08-17T16:13:50.134Z,7.77
2018-08-17T16:16:19.300Z,7.23
2018-08-17T16:18:48.289Z,6.17
2018-08-17T16:21:16.919Z,6.80
2018-08-17T16:23:45.656Z,6.87
2018-08-17T16:26:14.201Z,6.10
2018-08-17T16:28:42.727Z,5.90
2018-08-17T16:31:11.369Z,5.80
2018-08-17T16:33:39.925Z,5.57
2018-08-17T16:36:08.477Z,6.77
2018-08-17T16:38:37.555Z,5.83
2018-08-17T16:41:06.565Z,5.60
2018-08-17T16:43:42.920Z,5.17
2018-08-17T16:46:11.661Z,5.30
2018-08-17T16:48:41.127Z,8.97
2018-08-17T16:51:09.892Z,6.33
2018-08-17T16:53:38.566Z,5.20
2018-08-17T16:56:07.337Z,5.83
2018-08-17T16:58:35.913Z,5.60
2018-08-17T17:01:04.620Z,31.80
2018-08-17T17:03:39.770Z,10.47
2018-08-17T17:06:08.475Z,5.57
2018-08-17T17:08:37.478Z,5.40
2018-08-17T17:11:06.120Z,5.33
2018-08-17T17:13:39.489Z,5.40
2018-08-17T17:16:08.121Z,7.73
2018-08-17T17:18:36.663Z,6.07
2018-08-17T17:21:05.426Z,5.83
2018-08-17T17:23:34.088Z,4.53
2018-08-17T17:26:02.674Z,4.87
2018-08-17T17:28:32.633Z,4.73
2018-08-17T17:31:01.155Z,4.37
2018-08-17T17:33:29.725Z,4.13
2018-08-17T17:35:58.253Z,4.50
2018-08-17T17:38:26.762Z,4.43
2018-08-17T17:40:55.251Z,4.90
2018-08-17T17:43:23.883Z,4.50
2018-08-17T17:45:52.412Z,4.83
2018-08-17T17:48:20.947Z,4.53
2018-08-17T17:50:49.485Z,4.87
2018-08-17T17:53:18.063Z,5.70
2018-08-17T17:55:50.165Z,4.20
2018-08-17T17:58:19.433Z,3.80
2018-08-17T18:00:57.650Z,3.70
2018-08-17T18:03:27.819Z,3.87
2018-08-17T18:06:00.471Z,24.77
2018-08-17T18:08:30.329Z,4.03
2018-08-17T18:10:58.939Z,4.77
2018-08-17T18:13:27.511Z,21.27
2018-08-17T18:15:57.018Z,5.60
2018-08-17T18:18:25.650Z,3.87
2018-08-17T18:20:54.220Z,4.00
2018-08-17T18:23:22.860Z,4.17
2018-08-17T18:25:51.509Z,3.70
2018-08-17T18:28:20.075Z,4.17
2018-08-17T18:30:48.747Z,3.97
2018-08-17T18:33:17.267Z,3.93
2018-08-17T18:35:45.767Z,3.47
2018-08-17T18:38:14.270Z,3.43
2018-08-17T18:40:42.797Z,3.07
2018-08-17T18:43:11.381Z,4.37
2018-08-17T18:45:39.866Z,3.83
2018-08-17T18:48:08.413Z,3.20
2018-08-17T18:50:37.001Z,3.23
2018-08-17T18:53:05.555Z,3.47
2018-08-17T18:55:34.174Z,3.17
2018-08-17T18:58:02.729Z,3.33
2018-08-17T19:00:31.285Z,3.33
2018-08-17T19:02:59.928Z,3.47
2018-08-17T19:05:28.554Z,3.23
2018-08-17T19:07:57.194Z,3.47
2018-08-17T19:10:25.784Z,3.30
2018-08-17T19:12:54.361Z,3.60
2018-08-17T19:15:22.929Z,3.20
2018-08-17T19:17:51.491Z,3.20
2018-08-17T19:20:20.071Z,3.37
2018-08-17T19:22:48.693Z,3.60
2018-08-17T19:25:17.304Z,3.20
2018-08-17T19:27:45.836Z,3.17
2018-08-17T19:30:27.838Z,3.13
2018-08-17T19:32:57.593Z,3.53
2018-08-17T19:35:26.238Z,2.53
2018-08-17T19:37:54.905Z,3.57
2018-08-17T19:40:23.817Z,3.23
2018-08-17T19:42:52.414Z,3.40
2018-08-17T19:45:21.519Z,3.00
2018-08-17T19:47:50.278Z,3.57
2018-08-17T19:50:18.818Z,3.60
2018-08-17T19:52:47.331Z,3.97
2018-08-17T19:55:15.835Z,3.43
2018-08-17T19:57:44.443Z,3.70
2018-08-17T20:00:13.691Z,4.83
2018-08-17T20:02:42.524Z,3.53
2018-08-17T20:05:11.392Z,3.30
2018-08-17T20:07:40.219Z,3.63
2018-08-17T20:10:09.983Z,3.63
2018-08-17T20:12:38.503Z,3.07
2018-08-17T20:15:08.462Z,4.13
2018-08-17T20:17:37.417Z,4.07
2018-08-17T20:20:09.615Z,4.20
2018-08-17T20:22:38.172Z,3.93
2018-08-17T20:25:21.332Z,4.17
2018-08-17T20:27:49.906Z,3.97
2018-08-17T20:30:23.773Z,4.20
2018-08-17T20:32:52.388Z,4.23
2018-08-17T20:35:21.042Z,4.70
2018-08-17T20:37:52.013Z,5.10
2018-08-17T20:40:20.964Z,4.50
2018-08-17T20:42:49.660Z,4.67
2018-08-17T20:45:18.331Z,4.13
2018-08-17T20:47:46.935Z,4.03
2018-08-17T20:50:17.039Z,4.07
2018-08-17T20:52:50.557Z,4.10
2018-08-17T20:55:19.786Z,4.37
2018-08-17T20:57:50.360Z,3.70
2018-08-17T21:00:19.010Z,4.20
2018-08-17T21:02:47.841Z,4.73
2018-08-17T21:05:17.067Z,4.70
2018-08-17T21:07:46.388Z,4.80
2018-08-17T21:10:14.959Z,4.50
2018-08-17T21:12:43.549Z,4.90
2018-08-17T21:15:12.075Z,4.60
2018-08-17T21:17:40.614Z,4.70
2018-08-17T21:20:09.198Z,4.70
2018-08-17T21:22:37.647Z,4.33
2018-08-17T21:25:06.335Z,4.50
2018-08-17T21:27:35.060Z,4.27
2018-08-17T21:30:04.196Z,4.10
2018-08-17T21:32:32.686Z,4.80
2018-08-17T21:35:01.393Z,4.20
2018-08-17T21:37:30.108Z,4.60
2018-08-17T21:39:58.660Z,4.73
2018-08-17T21:42:27.188Z,4.80
2018-08-17T21:44:55.736Z,4.53
2018-08-17T21:47:24.201Z,4.53
2018-08-17T21:49:55.369Z,4.53
2018-08-17T21:52:24.209Z,4.57
2018-08-17T21:54:52.742Z,5.33
2018-08-17T21:57:21.293Z,5.20
2018-08-17T21:59:51.708Z,4.93
2018-08-17T22:02:21.008Z,5.00
2018-08-17T22:04:49.520Z,4.77
2018-08-17T22:07:21.320Z,4.27
2018-08-17T22:09:50.201Z,4.30
2018-08-17T22:12:18.768Z,4.77
2018-08-17T22:14:47.841Z,4.27
2018-08-17T22:17:28.759Z,4.67
2018-08-17T22:19:57.332Z,4.13
2018-08-17T22:22:25.948Z,4.37
2018-08-17T22:24:58.154Z,4.43
2018-08-17T22:27:27.983Z,4.87
2018-08-17T22:29:57.806Z,5.23
2018-08-17T22:32:26.353Z,4.97
2018-08-17T22:34:55.165Z,4.70
2018-08-17T22:37:23.716Z,4.90
2018-08-17T22:39:52.289Z,4.83
2018-08-17T22:42:22.473Z,4.40
2018-08-17T22:44:51.433Z,4.90
2018-08-17T22:47:22.131Z,5.53
2018-08-17T22:49:51.833Z,5.40
2018-08-17T22:52:20.376Z,5.27
2018-08-17T22:54:55.788Z,5.13
2018-08-17T22:57:24.568Z,5.33
2018-08-17T23:00:09.456Z,5.20
2018-08-17T23:02:38.642Z,6.13
2018-08-17T23:05:09.183Z,4.83
2018-08-17T23:07:37.968Z,4.57
2018-08-17T23:10:12.760Z,4.70
2018-08-17T23:12:41.506Z,4.60
2018-08-17T23:15:11.319Z,5.00
2018-08-17T23:17:40.802Z,4.77
2018-08-17T23:20:09.383Z,4.57
2018-08-17T23:22:47.943Z,4.83
2018-08-17T23:25:16.576Z,5.43
2018-08-17T23:27:45.688Z,5.40
2018-08-17T23:30:14.372Z,5.73
2018-08-17T23:32:43.145Z,5.30
2018-08-17T23:35:11.664Z,6.13
2018-08-17T23:37:40.367Z,5.00
2018-08-17T23:40:09.776Z,5.90
2018-08-17T23:42:38.284Z,5.20
2018-08-17T23:45:08.276Z,5.47
2018-08-17T23:47:36.778Z,6.23
2018-08-17T23:50:05.937Z,5.90
2018-08-17T23:52:34.543Z,6.17
2018-08-17T23:55:03.084Z,5.10
2018-08-17T23:57:31.686Z,6.30
